Nearby METAR Reports

 

KCPC - Whiteville, North Carolina, USA
Distance from station: NNE 17mi, 28km
Updated: 11/21/2017 10:05am
Partly cloudy
Partly cloudy
 Wind from NE
Wind: NE 6 mph , 9 km/h
Temperature: 52°F , 11°C
Dew Point: 43°F , 6°C
Humidity: 72%
Barometer: 30.23 inHg , 1023.7 hPa
Clouds: Partly cloudy
Visibility: 10 miles , 16 km
Cloud details: Partly cloudy 5500 ft
2017/11/21 15:05 KCPC 211505Z AUTO 05005KT 10SM SCT055 11/06 A3023 RMK AO2 T01120057
KCRE - North Myrtle Bea, South Carolina, USA
Distance from station: SSE 19mi, 31km
Updated: 11/21/2017 9:53am
Partly cloudy
Partly cloudy
 Wind from NNE
Wind: NNE 12 mph , 19 km/h
Temperature: 54°F , 12°C
Dew Point: 45°F , 7°C
Humidity: 72%
Barometer: 30.21 inHg , 1023 hPa
Clouds: Partly cloudy
Visibility: 10 miles , 16 km
Cloud details: Partly cloudy 6000 ft
2017/11/21 14:53 KCRE 211453Z 03010KT 10SM SCT060 12/07 A3021 RMK AO1 SLP230 T01220072 58003
 
KHYW - Conway-Horry Cty, South Carolina, USA
Distance from station: SW 22mi, 35km
Updated: 11/21/2017 10:15am
Overcast
Overcast
 Wind from NE
Wind: NE 7 mph , 11 km/h
Temperature: 54°F , 12°C
Dew Point: 46°F , 8°C
Humidity: 77%
Barometer: 30.22 inHg , 1023.4 hPa
Clouds: Overcast
Visibility: 7 miles , 11 km
Cloud details: Overcast 6000 ft
2017/11/21 15:15 KHYW 211515Z AUTO 04006KT 7SM OVC060 12/08 A3022 RMK AO2
KMAO - Marion, South Carolina, USA
Distance from station: WNW 28mi, 45km
Updated: 11/21/2017 10:15am
Overcast
Overcast
 Wind from E
Wind: E 6 mph , 9 km/h
Temperature: 54°F , 12°C
Dew Point: 45°F , 7°C
Humidity: 72%
Barometer: 30.23 inHg , 1023.7 hPa
Clouds: Overcast
Visibility: 7 miles , 11 km
Cloud details: Overcast 6000 ft
2017/11/21 15:15 KMAO 211515Z AUTO 10005KT 7SM OVC060 12/07 A3023 RMK AO2
 
KMYR - Myrtle Beach, South Carolina, USA
Distance from station: S 28mi, 45km
Updated: 11/21/2017 9:56am
Overcast
Overcast
 Wind from NE
Wind: NE 6 mph , 9 km/h
Temperature: 57°F , 14°C
Dew Point: 46°F , 8°C
Humidity: 67%
Barometer: 30.23 inHg , 1023.7 hPa
Clouds: Overcast
Visibility: 10 miles , 16 km
Cloud details: Overcast 6500 ft
2017/11/21 14:56 KMYR 211456Z AUTO 04005KT 10SM OVC065 14/08 A3023 RMK AO2 SLP236 T01390083 53001
KLBT - Lumberton, North Carolina, USA
Distance from station: NNW 39mi, 62km
Updated: 11/21/2017 9:54am
Few Clouds
Few Clouds
 Wind from ESE
Wind: ESE 3 mph , 6 km/h
Temperature: 52°F , 11°C
Dew Point: 43°F , 6°C
Humidity: 72%
Barometer: 30.23 inHg , 1023.7 hPa
Clouds: Few Clouds
Visibility: 10 miles , 16 km
Cloud details: Few Clouds 5500 ft
2017/11/21 14:54 KLBT 211454Z AUTO 11003KT 10SM FEW055 11/06 A3023 RMK AO2 SLP236 T01110056 55000
 
KSUT - Southport, North Carolina, USA
Distance from station: E 46mi, 74km
Updated: 11/21/2017 10:05am
Partly cloudy
Partly cloudy
 Wind from NE
Wind: NE 8 mph , 13 km/h
Temperature: 63°F , 17°C
Dew Point: 54°F , 12°C
Humidity: 73%
Barometer: 30.22 inHg , 1023.4 hPa
Clouds: Partly cloudy
Visibility: 10 miles , 16 km
Cloud details: Partly cloudy 5500 ft
2017/11/21 15:05 KSUT 211505Z AUTO 05007KT 10SM SCT055 17/12 A3022 RMK AO2 T01660117
KFLO - Florence, South Carolina, USA
Distance from station: W 50mi, 81km
Updated: 11/21/2017 9:53am
Few Clouds
Few Clouds
 Wind from E
Wind: E 8 mph , 13 km/h
Temperature: 54°F , 12°C
Dew Point: 43°F , 6°C
Humidity: 67%
Barometer: 30.22 inHg , 1023.4 hPa
Clouds: Few Clouds
Visibility: 10 miles , 16 km
Cloud details: Few Clouds 6000 ft
2017/11/21 14:53 KFLO 211453Z 10007KT 10SM FEW060 12/06 A3022 RMK AO2 SLP232 T01170061 50001 $